• Join FlightAware (Why Join?)
  • Login
  • US Flag 
01:29PM EDT


 

Airport Tracker/Info


-or-


 

Live Flight TrackerFlight Track Log ✈ AAY289 ✈ 29-Apr-2012 ✈ KLAS - KBLI

Flight Track Log - Related Links

Times and Time Zones

All times are in EDT time to prevent confusion due to time zone crossing. See the AAY289 flight status page for this flight to view local times or setup timezone preferences in your user account.

Time Position Orientation Groundspeed Altitude Reporting Facility
EDT Latitude Longitude Course Direction KTS MPH feet Rate Location/Type
11:45PM 36.1122 -115.1469 288° West 180 207 3,000  Level Los Angeles Center
11:46PM 36.1314 -115.2189 243° Southwest 242 278 5,100 1,860 Climbing Los Angeles Center
11:47PM 36.0986 -115.2989 199° South 255 293 7,500 1,860 Climbing Los Angeles Center
11:48PM 36.0300 -115.3278 204° Southwest 299 344 8,800 720 Climbing Los Angeles Center
11:49PM 35.9553 -115.3694 213° Southwest 294 338 9,000 840 Climbing Los Angeles Center
11:50PM 35.8908 -115.4214 266° West 312 359 10,500 1,200 Climbing Los Angeles Center
11:51PM 35.8850 -115.5342 273° West 348 400 11,500 1,500 Climbing Los Angeles Center
11:52PM 35.8897 -115.6675 273° West 401 461 13,500 1,920 Climbing Los Angeles Center
11:53PM 35.8944 -115.7881 271° West 409 471 15,400 1,980 Climbing Los Angeles Center
11:54PM 35.8969 -115.9469 308° West 404 465 17,500 1,920 Climbing Los Angeles Center
11:55PM 35.9594 -116.0444 317° Northwest 396 456 19,300 1,800 Climbing Los Angeles Center
11:56PM 36.0556 -116.1572 317° Northwest 424 488 21,100 1,560 Climbing Los Angeles Center
11:57PM 36.1408 -116.2550 317° Northwest 424 488 22,500 1,380 Climbing Los Angeles Center
11:58PM 36.2325 -116.3606 318° Northwest 430 495 23,900 1,500 Climbing Los Angeles Center
11:59PM 36.3242 -116.4642 316° Northwest 437 503 25,600 1,740 Climbing Los Angeles Center
12:00AM 36.4114 -116.5678 317° Northwest 437 503 27,400 1,560 Climbing Los Angeles Center
12:01AM 36.4986 -116.6689 316° Northwest 437 503 28,800 1,260 Climbing Los Angeles Center
12:02AM 36.5794 -116.7653 328° Northwest 436 502 30,000 1,020 Climbing Los Angeles Center
12:03AM 36.6769 -116.8411 331° Northwest 431 496 30,900 960 Climbing Los Angeles Center
12:04AM 36.7892 -116.9172 327° Northwest 418 481 32,000 360 Climbing Los Angeles Center
12:06AM 36.9525 -117.0492 330° Northwest 415 478 32,000  Level Oakland Center
12:07AM 37.0550 -117.1244 339° North 415 478 32,000  Level Oakland Center
12:08AM 37.1675 -117.1786 342° North 420 483 32,000  Level Oakland Center
12:09AM 37.2794 -117.2253 343° North 420 483 32,000  Level Oakland Center
12:10AM 37.3872 -117.2669 342° North 414 476 32,000  Level Oakland Center
12:11AM 37.4950 -117.3111 343° North 409 471 32,000  Level Oakland Center
12:12AM 37.6028 -117.3531 342° North 409 471 32,000  Level Oakland Center
12:13AM 37.7189 -117.4000 342° North 403 464 32,000  Level Oakland Center
12:14AM 37.8244 -117.4422 342° North 398 458 32,000  Level Oakland Center
12:15AM 37.9258 -117.4847 343° North 391 450 32,000  Level Oakland Center
12:16AM 38.0272 -117.5247 343° North 391 450 32,000  Level Oakland Center
12:17AM 38.1328 -117.5647 342° North 391 450 32,000  Level Oakland Center
12:18AM 38.2339 -117.6075 343° North 386 444 32,000  Level Oakland Center
12:19AM 38.3375 -117.6478 342° North 386 444 32,000  Level Oakland Center
12:20AM 38.4408 -117.6908 342° North 391 450 32,000  Level Oakland Center
12:21AM 38.5464 -117.7339 342° North 391 450 32,000  Level Oakland Center
12:22AM 38.6264 -117.7675 342° North 391 450 32,000  Level Oakland Center
12:23AM 38.7403 -117.8156 342° North 391 450 32,000  Level Oakland Center
12:24AM 38.8436 -117.8592 343° North 391 450 32,000  Level Oakland Center
12:25AM 38.9469 -117.9000 341° North 391 450 32,000  Level Oakland Center
12:26AM 39.0483 -117.9439 341° North 391 450 32,000  Level Oakland Center
12:27AM 39.1536 -117.9903 342° North 391 450 32,000  Level Oakland Center
12:28AM 39.2569 -118.0342 342° North 391 450 32,000  Level Oakland Center
12:29AM 39.3603 -118.0783 343° North 391 450 32,000  Level Oakland Center
12:30AM 39.4633 -118.1197 341° North 391 450 32,000  Level Oakland Center
12:31AM 39.5689 -118.1667 343° North 391 450 32,000  Level Oakland Center
12:32AM 39.6719 -118.2086 341° North 391 450 32,000  Level Oakland Center
12:33AM 39.7753 -118.2558 342° North 391 450 32,000  Level Oakland Center
12:35AM 39.9392 -118.3247 341° North 398 458 32,000  Level Salt Lake Center
12:36AM 40.0408 -118.3706 342° North 394 453 32,000  Level Salt Lake Center
12:37AM 40.1617 -118.4214 341° North 393 452 32,000  Level Salt Lake Center
12:38AM 40.2614 -118.4669 342° North 395 455 32,000  Level Salt Lake Center
12:39AM 40.3611 -118.5103 341° North 393 452 32,000  Level Salt Lake Center
12:40AM 40.4778 -118.5628 342° North 395 455 32,000  Level Salt Lake Center
12:41AM 40.5775 -118.6056 341° North 394 453 32,000  Level Salt Lake Center
12:42AM 40.6936 -118.6572 342° North 394 453 32,000  Level Salt Lake Center
12:43AM 40.7925 -118.7008 341° North 391 450 32,000  Level Salt Lake Center
12:44AM 40.8922 -118.7472 341° North 394 453 32,000  Level Salt Lake Center
12:45AM 41.0089 -118.8000 343° North 395 455 32,000  Level Salt Lake Center
12:46AM 41.1092 -118.8419 341° North 395 455 32,000  Level Salt Lake Center
12:47AM 41.2239 -118.8947 341° North 393 452 32,000  Level Salt Lake Center
12:48AM 41.3217 -118.9392 340° North 388 447 32,000  Level Salt Lake Center
12:49AM 41.4186 -118.9858 342° North 388 447 32,000  Level Salt Lake Center
12:50AM 41.5353 -119.0367 341° North 392 451 32,000  Level Salt Lake Center
12:51AM 41.6347 -119.0833 342° North 394 453 32,000  Level Salt Lake Center
12:52AM 41.7517 -119.1347 341° North 394 453 32,000  Level Salt Lake Center
12:53AM 41.8519 -119.1819 341° North 396 456 32,000  Level Salt Lake Center
12:54AM 41.9497 -119.2283 343° North 393 452 32,000  Level Salt Lake Center
12:55AM 42.0664 -119.2772 341° North 391 450 32,000  Level Salt Lake Center
12:56AM 42.1644 -119.3231 341° North 390 449 32,000  Level Salt Lake Center
12:57AM 42.2786 -119.3756 340° North 388 447 32,000  Level Salt Lake Center
12:58AM 42.3767 -119.4231 342° North 390 449 32,000  Level Salt Lake Center
12:59AM 42.4789 -119.4692 341° North 391 450 32,000  Level Salt Lake Center
01:00AM 42.5808 -119.5172 341° North 391 450 32,000  Level Salt Lake Center
01:01AM 42.6828 -119.5642 341° North 390 449 32,000  Level Salt Lake Center
01:02AM 42.7850 -119.6131 341° North 390 449 32,000  Level Salt Lake Center
01:03AM 42.9089 -119.6708 341° North 394 453 32,000  Level Salt Lake Center
01:04AM 43.0103 -119.7192 341° North 391 450 32,000  Level Salt Lake Center
01:05AM 43.1114 -119.7672 341° North 389 448 32,000  Level Salt Lake Center
01:06AM 43.2136 -119.8147 339° North 389 448 32,000  Level Salt Lake Center
01:07AM 43.3136 -119.8661 342° North 388 447 32,000  Level Salt Lake Center
01:08AM 43.4369 -119.9219 340° North 391 450 32,000  Level Seattle Center
01:09AM 43.5381 -119.9719 340° North 389 448 32,000  Level Seattle Center
01:10AM 43.6386 -120.0217 340° North 388 447 32,000  Level Seattle Center
01:11AM 43.7389 -120.0733 341° North 387 445 32,000  Level Seattle Center
01:12AM 43.8400 -120.1214 341° North 386 444 32,000  Level Seattle Center
01:13AM 43.9411 -120.1697 340° North 387 445 32,000  Level Seattle Center
01:15AM 44.0406 -120.2206 341° North 384 442 32,000  Level Seattle Center
01:16AM 44.1431 -120.2689 341° North 387 445 32,000  Level Seattle Center
01:17AM 44.2450 -120.3192 341° North 389 448 32,000  Level Seattle Center
01:18AM 44.3669 -120.3783 340° North 389 448 32,000  Level Seattle Center
01:19AM 44.4719 -120.4331 341° North 394 453 32,000  Level Seattle Center
01:20AM 44.5753 -120.4839 340° North 396 456 32,000  Level Seattle Center
01:21AM 44.6781 -120.5356 340° North 395 455 32,000  Level Seattle Center
01:22AM 44.7811 -120.5894 341° North 395 455 32,000  Level Seattle Center
01:23AM 44.8844 -120.6406 340° North 394 453 32,000  Level Seattle Center
01:24AM 44.9872 -120.6939 340° North 394 453 32,000  Level Seattle Center
01:25AM 45.0903 -120.7464 341° North 394 453 32,000  Level Seattle Center
01:26AM 45.1944 -120.7981 340° North 396 456 32,000  Level Seattle Center
01:27AM 45.2975 -120.8517 340° North 395 455 32,000  Level Seattle Center
01:28AM 45.4014 -120.9064 340° North 399 459 32,000  Level Seattle Center
01:29AM 45.5058 -120.9608 340° North 401 461 32,000  Level Seattle Center
01:30AM 45.6086 -121.0147 340° North 398 458 32,000  Level Seattle Center
01:31AM 45.7122 -121.0686 340° North 398 458 32,000  Level Seattle Center
01:32AM 45.8142 -121.1214 340° North 395 455 32,000  Level Seattle Center
01:33AM 45.9178 -121.1769 340° North 399 459 32,000  Level Seattle Center
01:34AM 46.0233 -121.2308 340° North 402 463 32,000  Level Seattle Center
01:35AM 46.1481 -121.2975 340° North 401 461 32,000  Level Seattle Center
01:36AM 46.2503 -121.3528 340° North 398 458 32,000  Level Seattle Center
01:37AM 46.3525 -121.4075 339° North 395 455 32,000  Level Seattle Center
01:38AM 46.4531 -121.4625 339° North 392 451 32,000  Level Seattle Center
01:39AM 46.5539 -121.5175 340° North 390 449 32,000  Level Seattle Center
01:40AM 46.6564 -121.5733 340° North 394 453 32,000  Level Seattle Center
01:41AM 46.7542 -121.6261 340° North 399 459 32,000  Level Seattle Center
01:42AM 46.8558 -121.6817 340° North 397 457 32,000  Level Seattle Center
01:43AM 46.9572 -121.7369 339° North 395 455 32,000  Level Seattle Center
01:44AM 47.0786 -121.8039 339° North 395 455 32,000  Level Seattle Center
01:45AM 47.1819 -121.8631 339° North 400 460 32,000  Level Seattle Center
01:46AM 47.2839 -121.9194 339° North 399 459 32,000 -600 Level Seattle Center
01:47AM 47.3875 -121.9778 340° North 403 464 30,900 -1,740 Descending Seattle Center
01:48AM 47.4894 -122.0342 339° North 400 460 28,600 -2,220 Descending Seattle Center
01:49AM 47.5892 -122.0922 339° North 395 455 26,500 -2,100 Descending Seattle Center
01:50AM 47.6875 -122.1481 341° North 391 450 24,400 -2,100 Descending Seattle Center
01:51AM 47.7867 -122.1994 338° Northwest 390 449 22,300 -2,340 Descending Seattle Center
01:52AM 47.9028 -122.2694 347° North 386 444 19,700 -2,460 Descending Seattle Center
01:53AM 47.9989 -122.3033 350° North 359 413 17,400 -2,220 Descending Seattle Center
01:54AM 48.0933 -122.3286 347° North 350 403 15,300 -2,280 Descending Seattle Center
01:55AM 48.1839 -122.3600 350° North 340 391 12,900 -2,340 Descending Seattle Center
01:56AM 48.2753 -122.3836 350° North 339 390 10,700 -1,440 Descending Seattle Center
01:57AM 48.3617 -122.4069 345° North 318 366 10,000 -900 Descending Seattle Center
01:58AM 48.4447 -122.4403 341° North 313 360 8,900 -1,440 Descending Seattle Center
01:59AM 48.5200 -122.4789 339° North 292 336 7,200 -2,040 Descending Seattle Center
02:00AM 48.5950 -122.5225 332° Northwest 288 331 4,800 -1,920 Descending Seattle Center
02:01AM 48.6500 -122.5667 327° Northwest 270 311 3,700 -720 Descending Vancouver Center
02:02AM 48.7000 -122.6167 351° North 240 276 3,500 -480 Descending Vancouver Center
02:03AM 48.7667 -122.6333 342° North 240 276 2,800 -720 Descending Vancouver Center
02:04AM 48.8333 -122.6667 North 230 265 2,100 -420 Descending Vancouver Center
02:05AM 48.9000 -122.6500 18° North 230 265 2,000  Descending Vancouver Center
02:06AM 48.9333 -122.6333 90° East 210 242 2,100  Climbing Vancouver Center
02:07AM 48.9333 -122.5500 162° South 170 196 2,000 -60 Descending Vancouver Center
02:08AM 48.9000 -122.5333 180° South 160 184 2,000 -300 Level Vancouver Center
02:09AM 48.8500 -122.5333 180° South 150 173 1,400 -660 Descending Vancouver Center
02:10AM 48.8167 -122.5333 180° South 140 161 700 -600 Descending Vancouver Center
02:11AM 48.7667 -122.5333 180° South 140 161 200 -540 Descending Vancouver Center